Time;durP1;ratioP1;P1;durP2;ratioP2;P2;SDS_P1;SDS_P2;PMS_P1;PMS_P2;Temp;Humidity;BMP_temperature;BMP_pressure;BME280_temperature;BME280_humidity;BME280_pressure;Samples;Min_cycle;Max_cycle;Signal;HPM_P1;HPM_P2
2021/08/19 00:01:45;;;;;;;3.30;2.95;;;;;;;17.15;87.82;96266.53;5178477;57;20213;-77
2021/08/19 00:06:47;;;;;;;3.50;2.83;;;;;;;17.23;87.45;96261.97;5178783;57;20172;-76
2021/08/19 00:11:49;;;;;;;5.00;2.80;;;;;;;17.25;86.74;96266.28;5178722;57;20120;-77
2021/08/19 00:16:52;;;;;;;3.38;2.83;;;;;;;17.23;86.69;96256.38;5178920;57;20643;-76
2021/08/19 00:21:55;;;;;;;7.00;2.83;;;;;;;17.14;87.64;96253.09;5179426;57;20601;-76
2021/08/19 00:26:57;;;;;;;3.60;2.55;;;;;;;17.17;87.70;96249.28;5181023;57;20669;-76
2021/08/19 00:32:03;;;;;;;2.72;2.42;;;;;;;17.13;88.01;96246.75;5181889;57;20209;-77
2021/08/19 00:37:05;;;;;;;2.42;2.22;;;;;;;17.13;88.29;96252.34;5181439;57;20137;-77
2021/08/19 00:42:08;;;;;;;2.97;2.53;;;;;;;16.93;89.68;96247.00;5181648;57;20133;-77
2021/08/19 00:47:12;;;;;;;3.40;2.72;;;;;;;17.11;88.72;96248.50;5181298;57;20883;-77
2021/08/19 00:52:15;;;;;;;3.67;3.08;;;;;;;17.23;87.45;96250.06;5180453;57;20128;-76
2021/08/19 00:57:18;;;;;;;2.83;2.30;;;;;;;17.19;88.15;96241.16;5181125;57;20128;-76
2021/08/19 01:02:21;;;;;;;4.57;3.03;;;;;;;17.13;88.33;96241.16;5181375;57;20696;-77
2021/08/19 01:07:23;;;;;;;7.50;3.20;;;;;;;17.05;88.65;96228.97;5182313;57;20655;-77
2021/08/19 01:12:26;;;;;;;2.80;2.47;;;;;;;17.16;88.32;96237.34;5182207;57;20120;-77
2021/08/19 01:17:29;;;;;;;5.90;2.83;;;;;;;17.23;87.21;96239.63;5180357;57;20138;-77
2021/08/19 01:22:32;;;;;;;4.40;2.88;;;;;;;17.25;88.02;96232.78;5181412;57;20672;-77
2021/08/19 01:27:35;;;;;;;3.83;2.78;;;;;;;17.16;87.84;96234.53;5181015;57;20124;-77
2021/08/19 01:32:37;;;;;;;3.20;2.28;;;;;;;17.09;87.92;96231.50;5180630;57;20120;-77
2021/08/19 01:37:39;;;;;;;4.97;2.70;;;;;;;17.03;87.95;96237.09;5180049;57;20129;-77
2021/08/19 01:42:43;;;;;;;5.88;2.55;;;;;;;17.06;88.19;96244.47;5180429;57;20128;-77
2021/08/19 01:47:47;;;;;;;5.70;2.67;;;;;;;17.10;87.68;96250.53;5180189;57;20124;-77
2021/08/19 01:52:49;;;;;;;2.65;2.45;;;;;;;17.06;87.50;96244.47;5180432;57;20133;-77
2021/08/19 01:57:52;;;;;;;2.22;2.05;;;;;;;17.02;88.20;96235.56;5180343;57;20228;-77
2021/08/19 02:02:55;;;;;;;3.83;2.58;;;;;;;16.95;88.26;96240.91;5180469;57;20133;-77
2021/08/19 02:07:58;;;;;;;3.30;2.33;;;;;;;16.91;88.82;96243.94;5180428;57;20138;-77
2021/08/19 02:13:01;;;;;;;5.13;2.50;;;;;;;16.95;88.45;96241.66;5181193;57;20137;-76
2021/08/19 02:18:03;;;;;;;2.92;2.58;;;;;;;16.93;87.74;96237.84;5187431;57;20224;-78
2021/08/19 02:23:06;;;;;;;4.38;2.13;;;;;;;16.89;87.41;96240.88;5180280;57;20136;-77
2021/08/19 02:28:08;;;;;;;2.58;2.38;;;;;;;16.84;87.23;96233.28;5180051;57;20124;-77
2021/08/19 02:33:10;;;;;;;2.38;2.17;;;;;;;16.92;87.02;96248.25;5180066;57;20124;-77
2021/08/19 02:38:13;;;;;;;2.83;2.40;;;;;;;16.88;87.35;96246.97;5180076;57;20726;-76
2021/08/19 02:43:15;;;;;;;2.85;2.30;;;;;;;16.91;87.01;96248.75;5179771;57;20704;-77
2021/08/19 02:48:18;;;;;;;4.50;2.33;;;;;;;17.04;86.82;96243.44;5178873;57;20124;-77
2021/08/19 02:53:20;;;;;;;3.97;2.53;;;;;;;16.95;86.45;96238.88;5179881;57;20124;-77
2021/08/19 02:58:23;;;;;;;2.83;2.25;;;;;;;17.05;86.65;96245.72;5179696;57;20687;-77
2021/08/19 03:03:25;;;;;;;2.95;2.72;;;;;;;16.95;87.34;96252.06;5179974;57;20124;-77
2021/08/19 03:08:28;;;;;;;3.15;2.60;;;;;;;17.10;86.61;96253.34;5179485;57;20672;-77
2021/08/19 03:13:30;;;;;;;3.03;2.17;;;;;;;17.03;86.87;96251.03;5179648;57;20133;-77
2021/08/19 03:18:34;;;;;;;2.30;2.13;;;;;;;17.06;86.62;96244.47;5181788;57;20128;-77
2021/08/19 03:23:36;;;;;;;3.78;2.70;;;;;;;16.95;87.08;96246.47;5179995;57;20656;-76
2021/08/19 03:28:41;;;;;;;2.65;2.45;;;;;;;16.95;86.81;96236.06;5179222;57;20133;-77
2021/08/19 03:33:43;;;;;;;2.97;2.55;;;;;;;17.00;86.70;96235.31;5179350;57;20592;-77
2021/08/19 03:38:46;;;;;;;3.65;2.47;;;;;;;17.04;86.82;96235.81;5178948;57;20124;-77
2021/08/19 03:43:48;;;;;;;4.20;2.90;;;;;;;16.92;86.05;96234.28;5180085;57;20137;-77
2021/08/19 03:48:51;;;;;;;4.45;2.63;;;;;;;16.96;86.82;96239.63;5179281;57;20124;-76
2021/08/19 03:53:54;;;;;;;3.50;2.60;;;;;;;16.91;86.99;96237.59;5178774;57;20128;-76
2021/08/19 03:58:57;;;;;;;3.28;2.35;;;;;;;16.97;87.00;96246.72;5181889;57;20218;-77
2021/08/19 04:04:00;;;;;;;3.70;2.70;;;;;;;17.00;86.48;96243.69;5182831;57;20627;-77
2021/08/19 04:09:03;;;;;;;5.00;2.92;;;;;;;16.95;87.10;96246.47;5182638;57;20133;-76
2021/08/19 04:14:05;;;;;;;2.75;2.38;;;;;;;16.87;87.21;96251.78;5191755;57;20166;-76
2021/08/19 04:19:08;;;;;;;4.60;2.55;;;;;;;16.88;86.63;96253.31;5182277;57;20133;-76
2021/08/19 04:24:11;;;;;;;3.22;2.47;;;;;;;16.99;87.00;96258.91;5182186;57;20167;-76
2021/08/19 04:29:13;;;;;;;4.22;2.55;;;;;;;17.10;85.81;96255.34;5181619;57;20288;-76
2021/08/19 04:34:15;;;;;;;4.25;2.80;;;;;;;17.19;85.97;96258.66;5182315;57;20124;-76
2021/08/19 04:39:18;;;;;;;3.90;2.80;;;;;;;17.07;86.13;96257.13;5181882;57;20136;-76
2021/08/19 04:44:20;;;;;;;3.88;2.92;;;;;;;17.16;84.94;96254.09;5181586;57;20132;-76
2021/08/19 04:49:23;;;;;;;5.05;3.30;;;;;;;17.12;85.91;96259.16;5181422;57;20961;-76
2021/08/19 04:54:25;;;;;;;4.38;3.10;;;;;;;17.18;85.47;96257.16;5181119;57;20129;-77
2021/08/19 04:59:27;;;;;;;3.63;2.85;;;;;;;17.11;85.68;96254.09;5181566;57;20124;-77
2021/08/19 05:04:30;;;;;;;2.92;2.63;;;;;;;17.08;85.24;96261.47;5182074;57;20142;-76
2021/08/19 05:09:32;;;;;;;6.95;3.28;;;;;;;17.33;84.76;96267.28;5182363;57;20124;-76
2021/08/19 05:14:34;;;;;;;3.28;2.75;;;;;;;17.39;85.64;96262.50;5194386;57;20124;-77
2021/08/19 05:19:37;;;;;;;5.82;2.90;;;;;;;17.41;83.59;96257.16;5181346;57;20548;-76
2021/08/19 05:24:39;;;;;;;4.90;3.00;;;;;;;17.64;83.88;96261.47;5181431;57;20174;-76
2021/08/19 05:29:42;;;;;;;2.92;2.55;;;;;;;17.62;83.42;96264.00;5180794;57;20592;-76
2021/08/19 05:34:44;;;;;;;4.78;3.15;;;;;;;17.59;83.49;96256.66;5180977;57;20602;-77
2021/08/19 05:39:47;;;;;;;3.28;2.95;;;;;;;17.74;83.05;96259.91;5180868;57;20129;-76
2021/08/19 05:44:49;;;;;;;6.85;3.05;;;;;;;17.99;82.07;96260.88;5180509;57;20614;-75
2021/08/19 05:49:51;;;;;;;3.58;2.55;;;;;;;18.25;81.96;96270.44;5180726;57;20133;-76
2021/08/19 05:54:54;;;;;;;3.25;2.72;;;;;;;18.23;79.52;96266.63;5179748;57;20155;-76
2021/08/19 05:59:56;;;;;;;4.28;3.25;;;;;;;18.14;80.43;96273.28;5180650;57;20106;-75
2021/08/19 06:04:59;;;;;;;2.92;2.63;;;;;;;18.01;81.41;96269.50;5180197;57;20708;-76
2021/08/19 06:10:02;;;;;;;5.00;3.30;;;;;;;18.44;80.47;96279.00;5180564;57;20661;-76
2021/08/19 06:15:06;;;;;;;3.50;2.80;;;;;;;18.85;79.36;96284.69;5180692;57;20138;-76
2021/08/19 06:20:09;;;;;;;4.32;2.92;;;;;;;18.73;78.71;96283.22;5179619;57;20116;-76
2021/08/19 06:25:14;;;;;;;4.38;3.05;;;;;;;18.69;77.55;96280.72;5188623;57;20137;-74
2021/08/19 06:30:16;;;;;;;3.78;2.90;;;;;;;18.70;78.07;96282.25;5180865;57;20723;-75
2021/08/19 06:35:18;;;;;;;4.47;2.90;;;;;;;18.52;77.54;96283.56;5180060;57;20137;-76
2021/08/19 06:40:22;;;;;;;4.72;3.03;;;;;;;18.76;77.55;96285.00;5180322;57;20230;-75
2021/08/19 06:45:24;;;;;;;4.68;3.03;;;;;;;19.17;76.05;96291.34;5179348;57;20128;-76
2021/08/19 06:50:27;;;;;;;7.22;3.40;;;;;;;18.95;76.55;96285.91;5180284;57;20224;-76
2021/08/19 06:55:29;;;;;;;3.75;3.10;;;;;;;19.02;77.02;96299.38;5179838;57;20137;-75
2021/08/19 07:00:32;;;;;;;8.57;3.10;;;;;;;19.32;75.73;96292.53;5179795;57;20131;-76
2021/08/19 07:05:34;;;;;;;5.13;3.05;;;;;;;19.30;74.52;96288.72;5179455;57;20176;-76
2021/08/19 07:10:38;;;;;;;3.47;3.00;;;;;;;19.09;75.21;96295.97;5179841;57;20128;-76
2021/08/19 07:15:42;;;;;;;5.95;2.50;;;;;;;19.67;73.91;96288.94;5178971;57;20120;-75
2021/08/19 07:20:44;;;;;;;3.25;2.70;;;;;;;18.94;73.73;96290.75;5179424;57;20130;-76
2021/08/19 07:25:47;;;;;;;4.45;2.70;;;;;;;19.01;74.28;96289.44;5179046;57;20688;-76
2021/08/19 07:30:50;;;;;;;5.20;2.85;;;;;;;19.04;74.67;96294.00;5179207;57;20138;-76
2021/08/19 07:35:52;;;;;;;3.72;2.42;;;;;;;19.33;74.87;96293.28;5178996;57;20124;-75
2021/08/19 07:40:55;;;;;;;3.28;2.45;;;;;;;19.85;71.44;96288.28;5179066;57;20123;-76
2021/08/19 07:45:58;;;;;;;2.40;2.08;;;;;;;20.25;71.55;96285.81;5179250;57;20128;-76
2021/08/19 07:51:00;;;;;;;4.63;2.45;;;;;;;19.62;71.98;96294.59;5179487;57;20133;-76
2021/08/19 07:56:03;;;;;;;3.53;2.67;;;;;;;19.17;73.62;96296.97;5179016;57;20142;-76
2021/08/19 08:01:05;;;;;;;3.53;2.75;;;;;;;19.12;72.42;96294.97;5178597;57;20137;-77
2021/08/19 08:06:08;;;;;;;3.45;2.72;;;;;;;18.85;76.07;96305.06;5178737;57;20243;-75
2021/08/19 08:11:10;;;;;;;3.33;2.42;;;;;;;19.37;72.70;96293.78;5191610;57;20164;-75
2021/08/19 08:16:12;;;;;;;5.82;2.78;;;;;;;19.66;73.56;96307.03;5178473;57;20128;-76
2021/08/19 08:21:16;;;;;;;3.40;2.50;;;;;;;20.47;71.58;96310.81;5178293;57;20759;-76
2021/08/19 08:26:18;;;;;;;2.63;2.00;;;;;;;20.68;69.52;96314.66;5178147;57;20128;-76
2021/08/19 08:31:20;;;;;;;4.65;2.63;;;;;;;19.55;72.62;96315.56;5177862;57;20138;-75
2021/08/19 08:36:23;;;;;;;2.83;2.33;;;;;;;20.30;69.81;96325.06;5178130;57;20589;-78
2021/08/19 08:41:26;;;;;;;2.55;2.15;;;;;;;20.56;69.98;96318.88;5178257;57;20151;-75
2021/08/19 08:46:30;;;;;;;2.03;1.85;;;;;;;20.70;66.52;96326.13;5181283;57;20133;-76
2021/08/19 08:51:37;;;;;;;2.58;2.25;;;;;;;20.54;67.96;96332.69;5180985;57;20115;-76
2021/08/19 08:56:39;;;;;;;2.55;2.35;;;;;;;21.30;65.28;96321.00;5181195;57;20155;-75
2021/08/19 09:01:41;;;;;;;2.78;2.17;;;;;;;21.82;65.27;96326.81;5180809;57;20111;-75
2021/08/19 09:06:45;;;;;;;2.40;2.20;;;;;;;21.91;63.61;96326.41;5180895;57;20150;-76
2021/08/19 09:12:00;;;;;;;1.98;1.75;;;;;;;22.04;61.70;96328.50;5181533;57;20128;-75
2021/08/19 09:17:04;;;;;;;2.22;1.80;;;;;;;22.11;61.67;96328.63;5181080;57;20692;-75
2021/08/19 09:22:07;;;;;;;1.55;1.45;;;;;;;22.03;60.26;96324.91;5181099;57;20115;-75
2021/08/19 09:27:13;;;;;;;3.42;1.70;;;;;;;22.49;57.33;96325.59;5180800;57;20675;-75
2021/08/19 09:32:17;;;;;;;1.38;1.27;;;;;;;23.38;58.76;96327.34;5180943;57;20124;-75
2021/08/19 09:37:20;;;;;;;1.58;1.48;;;;;;;22.93;57.25;96323.97;5180792;57;20119;-76
2021/08/19 09:42:36;;;;;;;2.45;1.42;;;;;;;23.12;56.44;96318.94;5180931;57;20767;-75
2021/08/19 09:47:38;;;;;;;1.23;0.98;;;;;;;22.75;55.64;96315.09;5180740;57;20133;-75
2021/08/19 09:52:45;;;;;;;1.30;1.20;;;;;;;23.62;53.04;96321.38;5180522;57;20160;-76
2021/08/19 09:57:48;;;;;;;1.23;1.13;;;;;;;24.18;51.05;96317.94;5180645;57;20173;-75
2021/08/19 10:02:50;;;;;;;1.33;1.20;;;;;;;24.20;48.97;96318.13;5180406;57;20599;-75
2021/08/19 10:07:53;;;;;;;1.10;1.10;;;;;;;23.98;46.63;96313.81;5179477;57;20217;-75
2021/08/19 10:13:01;;;;;;;1.17;1.17;;;;;;;24.81;43.71;96316.47;5180695;57;20128;-76
2021/08/19 10:18:06;;;;;;;1.40;1.30;;;;;;;26.39;42.38;96301.91;5179047;57;20128;-76
2021/08/19 10:23:11;;;;;;;1.67;1.30;;;;;;;24.96;45.80;96305.25;5179362;57;20125;-76
2021/08/19 10:28:19;;;;;;;1.15;1.05;;;;;;;26.20;44.49;96304.38;5179928;57;20146;-76
2021/08/19 10:33:37;;;;;;;1.30;1.20;;;;;;;24.95;46.56;96300.88;5180638;57;20141;-74
2021/08/19 10:38:41;;;;;;;2.47;1.23;;;;;;;24.98;45.97;96296.19;5179747;57;20180;-75
2021/08/19 10:44:02;;;;;;;1.25;1.15;;;;;;;25.72;44.90;96285.63;5180159;57;20458;-75
2021/08/19 10:49:05;;;;;;;1.10;1.00;;;;;;;23.61;47.48;96286.00;5179416;57;20115;-74
2021/08/19 10:54:34;;;;;;;1.88;1.30;;;;;;;24.45;46.77;96284.63;5178937;57;20756;-75
2021/08/19 10:59:39;;;;;;;1.30;1.20;;;;;;;25.67;44.16;96292.25;5179664;57;20722;-74
2021/08/19 11:04:43;;;;;;;1.00;1.00;;;;;;;25.86;45.32;96286.97;5181984;57;20674;-74
2021/08/19 11:09:52;;;;;;;1.00;1.00;;;;;;;27.06;41.61;96288.13;5201902;57;20115;-75
2021/08/19 11:14:55;;;;;;;;;;;;;;;25.17;43.22;96274.75;5179837;57;20357;-75
2021/08/19 11:19:57;;;;;;;1.63;1.27;;;;;;;26.57;41.21;96266.72;5178829;57;19998;-75
2021/08/19 11:25:00;;;;;;;1.27;1.17;;;;;;;26.64;42.55;96280.09;5178931;57;20245;-75
2021/08/19 11:30:02;;;;;;;1.33;1.08;;;;;;;26.61;40.96;96269.16;5179462;57;20679;-74
2021/08/19 11:35:09;;;;;;;1.23;1.20;;;;;;;28.64;37.86;96272.03;5178935;57;20229;-74
2021/08/19 11:40:12;;;;;;;2.03;1.23;;;;;;;27.68;41.32;96263.16;5179099;57;20133;-74
2021/08/19 11:45:18;;;;;;;1.52;1.20;;;;;;;26.74;41.89;96272.56;5178477;57;20137;-75
2021/08/19 11:50:24;;;;;;;1.10;1.10;;;;;;;28.38;40.58;96264.91;5178603;57;20658;-76
2021/08/19 11:55:29;;;;;;;1.55;1.40;;;;;;;26.01;42.15;96262.25;5178165;57;20128;-75
2021/08/19 12:00:31;;;;;;;1.48;1.38;;;;;;;25.76;47.00;96260.56;5178359;57;20137;-75
2021/08/19 12:05:34;;;;;;;1.20;1.15;;;;;;;27.51;42.60;96265.19;5162576;57;20138;-75
2021/08/19 12:10:37;;;;;;;1.30;1.30;;;;;;;26.81;43.37;96265.34;5159186;57;20112;-75
2021/08/19 12:15:39;;;;;;;2.65;1.40;;;;;;;27.38;41.79;96248.44;5158394;57;20117;-75
2021/08/19 12:20:42;;;;;;;1.85;1.42;;;;;;;28.29;nan;96246.38;5161307;57;20128;-75
2021/08/19 12:25:45;;;;;;;1.38;1.20;;;;;;;27.26;43.13;96253.78;5161660;57;20129;-76
2021/08/19 12:30:59;;;;;;;6.88;2.50;;;;;;;28.40;42.78;96240.19;5161762;57;20125;-76
2021/08/19 12:36:13;;;;;;;1.65;1.48;;;;;;;25.61;41.55;96236.59;5161647;57;20120;-75
2021/08/19 12:41:23;;;;;;;1.80;1.70;;;;;;;26.20;42.10;96233.56;5162098;57;20125;-76
2021/08/19 12:46:44;;;;;;;1.60;1.35;;;;;;;27.94;42.03;96230.59;5160872;57;20169;-74
2021/08/19 12:51:47;;;;;;;1.85;1.75;;;;;;;25.04;42.45;96240.22;5161918;57;20142;-74
2021/08/19 12:56:59;;;;;;;2.17;1.50;;;;;;;27.32;39.91;96231.59;5161201;57;20697;-74
2021/08/19 13:02:01;;;;;;;2.33;1.77;;;;;;;26.07;41.93;96217.50;5160975;57;20120;-76
2021/08/19 13:07:11;;;;;;;1.52;1.40;;;;;;;26.03;41.38;96213.56;5161466;57;20129;-76
2021/08/19 13:12:14;;;;;;;1.42;1.33;;;;;;;25.71;42.82;96224.69;5161771;57;20243;-75
2021/08/19 13:17:16;;;;;;;1.60;1.50;;;;;;;26.56;44.28;96213.44;5160924;57;20148;-75
2021/08/19 13:22:20;;;;;;;1.50;1.40;;;;;;;24.81;44.07;96212.63;5161677;57;20693;-75
2021/08/19 13:27:23;;;;;;;1.50;1.40;;;;;;;24.14;46.88;96213.06;5161215;57;20151;-76
2021/08/19 13:32:26;;;;;;;1.52;1.42;;;;;;;24.92;45.14;96197.44;5161814;57;20129;-76
2021/08/19 13:37:29;;;;;;;1.40;1.30;;;;;;;24.47;46.21;96208.53;5180471;57;20120;-75
2021/08/19 13:42:31;;;;;;;1.40;1.30;;;;;;;24.88;45.09;96194.94;5183951;57;20133;-76
2021/08/19 13:47:34;;;;;;;2.55;1.67;;;;;;;24.76;44.89;96199.44;5188656;57;20674;-76
2021/08/19 13:52:37;;;;;;;4.65;1.55;;;;;;;25.16;45.25;96207.44;5181489;57;20687;-76
2021/08/19 13:57:40;;;;;;;1.73;1.40;;;;;;;25.99;44.23;96196.94;5181560;57;20116;-76
2021/08/19 14:02:42;;;;;;;1.50;1.40;;;;;;;24.94;44.13;96186.31;5207857;57;20124;-76
2021/08/19 14:07:45;;;;;;;1.70;1.60;;;;;;;25.77;44.13;96182.78;5180206;57;20233;-74
2021/08/19 14:12:48;;;;;;;1.50;1.40;;;;;;;26.07;44.54;96185.59;5180625;57;20120;-77
2021/08/19 14:17:51;;;;;;;1.30;1.27;;;;;;;26.27;43.58;96187.47;5185094;57;20128;-76
2021/08/19 14:22:53;;;;;;;1.50;1.40;;;;;;;25.00;46.12;96192.53;5166229;57;20142;-75
2021/08/19 14:27:56;;;;;;;1.50;1.40;;;;;;;25.90;47.56;96189.00;5179469;57;20124;-76
2021/08/19 14:32:58;;;;;;;1.67;1.48;;;;;;;25.41;48.97;96194.28;5180469;57;20683;-76
2021/08/19 14:38:03;;;;;;;1.50;1.40;;;;;;;26.31;45.31;96180.06;5181250;57;20129;-76
2021/08/19 14:43:05;;;;;;;1.42;1.27;;;;;;;25.41;46.93;96185.81;5181366;57;20129;-75
2021/08/19 14:48:09;;;;;;;1.60;1.50;;;;;;;24.47;47.58;96189.50;5182870;57;20137;-75
2021/08/19 14:53:12;;;;;;;2.10;1.40;;;;;;;24.94;47.42;96169.34;5182886;57;20251;-75
2021/08/19 14:58:14;;;;;;;1.25;1.23;;;;;;;24.86;47.46;96168.56;5159060;57;20178;-76
2021/08/19 15:03:17;;;;;;;1.80;1.70;;;;;;;25.45;45.83;96174.88;5165795;57;20228;-76
2021/08/19 15:08:19;;;;;;;1.70;1.60;;;;;;;25.62;44.88;96175.81;5172673;57;20146;-76
2021/08/19 15:13:23;;;;;;;1.70;1.60;;;;;;;25.22;46.96;96176.91;5179637;57;20715;-76
2021/08/19 15:18:31;;;;;;;1.70;1.60;;;;;;;24.09;48.17;96177.25;5180413;57;20150;-76
2021/08/19 15:23:35;;;;;;;1.70;1.60;;;;;;;24.50;49.03;96173.50;5180223;57;20128;-76
2021/08/19 15:28:37;;;;;;;1.67;1.58;;;;;;;24.16;48.68;96171.66;5178894;57;20129;-76
2021/08/19 15:33:40;;;;;;;1.90;1.67;;;;;;;24.25;48.50;96167.56;5179629;57;20124;-76
2021/08/19 15:38:43;;;;;;;1.70;1.45;;;;;;;24.62;48.04;96172.63;5178187;57;20604;-76
2021/08/19 15:43:50;;;;;;;1.80;1.70;;;;;;;23.79;50.91;96165.78;5179233;57;20128;-76
2021/08/19 15:48:52;;;;;;;1.98;1.63;;;;;;;23.60;52.61;96166.00;5178961;57;20128;-75
2021/08/19 15:53:54;;;;;;;1.63;1.50;;;;;;;23.61;51.32;96167.50;5183908;57;20132;-76
2021/08/19 15:58:57;;;;;;;2.30;2.10;;;;;;;23.38;50.47;96163.78;5186323;57;20128;-76
2021/08/19 16:03:59;;;;;;;1.83;1.55;;;;;;;23.46;51.67;96164.59;5192591;57;20128;-76
2021/08/19 16:09:03;;;;;;;1.90;1.80;;;;;;;23.28;52.32;96168.34;5185777;57;20238;-76
2021/08/19 16:14:06;;;;;;;2.55;1.80;;;;;;;23.18;50.80;96170.16;5185732;57;20133;-76
2021/08/19 16:19:10;;;;;;;1.83;1.73;;;;;;;23.01;50.57;96170.56;5185534;57;20669;-76
2021/08/19 16:24:12;;;;;;;2.78;1.85;;;;;;;23.19;52.25;96171.66;5184078;57;20111;-76
2021/08/19 16:29:14;;;;;;;1.50;1.40;;;;;;;23.85;53.16;96164.31;5185344;57;20133;-76
2021/08/19 16:34:17;;;;;;;2.58;2.22;;;;;;;23.68;48.79;96166.06;5185133;57;20119;-76
2021/08/19 16:39:19;;;;;;;2.08;1.80;;;;;;;23.90;49.55;96149.28;5185204;57;20124;-76
2021/08/19 16:44:22;;;;;;;1.65;1.55;;;;;;;22.93;51.67;96143.59;5185280;57;20137;-76
2021/08/19 16:49:24;;;;;;;1.75;1.65;;;;;;;22.69;52.21;96155.94;5185822;57;20625;-76
2021/08/19 16:54:26;;;;;;;2.30;2.10;;;;;;;22.42;54.11;96155.25;5207680;57;20160;-76
2021/08/19 16:59:29;;;;;;;1.75;1.65;;;;;;;22.56;53.86;96151.09;5187458;57;20133;-76
2021/08/19 17:04:31;;;;;;;1.63;1.52;;;;;;;22.86;52.58;96158.38;5182442;57;20119;-76
2021/08/19 17:09:34;;;;;;;1.60;1.50;;;;;;;22.64;53.08;96159.63;5180969;57;20296;-76
2021/08/19 17:14:36;;;;;;;2.22;1.70;;;;;;;22.58;53.83;96159.75;5181814;57;20106;-76
2021/08/19 17:19:39;;;;;;;1.88;1.75;;;;;;;22.48;54.76;96163.56;5174037;57;20221;-76
2021/08/19 17:24:41;;;;;;;4.82;1.80;;;;;;;22.51;54.47;96170.91;5182328;57;20234;-78
2021/08/19 17:29:44;;;;;;;1.63;1.52;;;;;;;22.70;54.84;96175.13;5184773;57;20190;-78
2021/08/19 17:34:46;;;;;;;1.23;1.23;;;;;;;22.76;56.25;96172.94;5182577;57;20674;-76
2021/08/19 17:39:49;;;;;;;2.03;1.83;;;;;;;22.59;57.51;96177.41;5182609;57;20220;-76
2021/08/19 17:44:52;;;;;;;4.93;1.45;;;;;;;22.61;56.74;96163.56;5182306;57;20155;-78
2021/08/19 17:49:54;;;;;;;2.67;1.70;;;;;;;22.33;59.62;96161.31;5188578;57;20146;-78
2021/08/19 17:54:56;;;;;;;2.13;1.63;;;;;;;22.16;60.02;96157.34;5190017;57;20670;-77
2021/08/19 18:00:00;;;;;;;1.58;1.48;;;;;;;21.99;61.58;96158.47;5187835;57;20141;-75
2021/08/19 18:05:03;;;;;;;1.52;1.42;;;;;;;21.95;60.91;96163.66;5183764;57;20695;-78
2021/08/19 18:10:07;;;;;;;2.00;1.52;;;;;;;21.88;63.77;96160.72;5197727;57;20120;-81
2021/08/19 18:15:10;;;;;;;1.52;1.42;;;;;;;21.60;62.67;96161.22;5207154;57;20119;-77
2021/08/19 18:20:14;;;;;;;1.58;1.48;;;;;;;21.27;65.39;96168.22;5205278;57;20116;-80
2021/08/19 18:25:17;;;;;;;1.92;1.50;;;;;;;21.41;64.14;96171.81;5201988;57;20136;-78
2021/08/19 18:30:19;;;;;;;1.45;1.35;;;;;;;21.09;65.92;96176.72;5204555;57;20148;-78
2021/08/19 18:35:22;;;;;;;2.65;1.45;;;;;;;21.10;65.92;96167.00;5204929;57;20116;-79
2021/08/19 18:40:24;;;;;;;1.60;1.40;;;;;;;20.92;67.08;96168.50;5204843;57;20132;-77
2021/08/19 18:45:27;;;;;;;2.08;1.35;;;;;;;20.79;69.38;96182.50;5204751;57;20126;-79
2021/08/19 18:50:29;;;;;;;2.42;1.38;;;;;;;20.80;68.27;96189.66;5208095;57;20111;-79
2021/08/19 18:55:32;;;;;;;1.35;1.08;;;;;;;20.70;69.57;96191.31;5206807;57;20089;-79
2021/08/19 19:00:34;;;;;;;1.65;1.50;;;;;;;20.73;67.83;96195.88;5199329;57;20120;-80
2021/08/19 19:05:37;;;;;;;1.73;1.40;;;;;;;20.83;67.96;96202.63;5206133;57;20103;-78
2021/08/19 19:10:39;;;;;;;1.30;1.30;;;;;;;20.61;69.22;96194.53;5207451;57;20107;-77
2021/08/19 19:15:42;;;;;;;1.35;1.25;;;;;;;20.70;67.51;96211.75;5195427;57;20101;-78
2021/08/19 19:20:45;;;;;;;1.70;1.60;;;;;;;20.67;68.31;96207.19;5208510;57;20173;-78
2021/08/19 19:25:47;;;;;;;1.77;1.60;;;;;;;20.68;66.66;96208.72;5206985;57;20089;-78
2021/08/19 19:30:49;;;;;;;1.58;1.50;;;;;;;20.56;68.72;96207.34;5206119;57;20141;-78
2021/08/19 19:35:52;;;;;;;1.40;1.30;;;;;;;20.54;67.97;96211.97;5205838;57;20265;-78
2021/08/19 19:40:54;;;;;;;1.88;1.60;;;;;;;20.58;67.13;96210.38;5206699;57;20119;-78
2021/08/19 19:45:57;;;;;;;1.55;1.45;;;;;;;20.53;68.29;96216.09;5208700;57;20098;-78
2021/08/19 19:51:00;;;;;;;1.50;1.40;;;;;;;20.33;71.07;96216.59;5194713;57;20242;-79
2021/08/19 19:56:03;;;;;;;2.72;1.30;;;;;;;20.30;71.63;96221.22;5186583;57;20120;-80
2021/08/19 20:01:05;;;;;;;1.55;1.38;;;;;;;20.32;74.05;96221.44;5187736;57;20157;-81
2021/08/19 20:06:08;;;;;;;2.45;1.63;;;;;;;20.30;76.38;96231.69;5176924;57;20137;-79
2021/08/19 20:11:10;;;;;;;1.40;1.33;;;;;;;20.39;75.16;96232.09;5186304;57;20133;-81
2021/08/19 20:16:14;;;;;;;1.40;1.30;;;;;;;20.34;75.59;96232.91;5188475;57;20128;-81
2021/08/19 20:21:17;;;;;;;2.97;1.55;;;;;;;20.09;76.82;96237.00;5179251;57;20672;-80
2021/08/19 20:26:19;;;;;;;5.50;1.33;;;;;;;20.18;77.27;96233.06;5176378;57;20129;-80
2021/08/19 20:31:22;;;;;;;3.70;1.52;;;;;;;20.17;76.96;96231.56;5182308;57;20128;-79
2021/08/19 20:36:25;;;;;;;1.35;1.25;;;;;;;20.14;76.80;96236.19;5187229;57;20182;-81
2021/08/19 20:41:27;;;;;;;3.33;1.48;;;;;;;19.97;77.00;96241.97;5186695;57;20173;-80
2021/08/19 20:46:30;;;;;;;1.45;1.35;;;;;;;19.95;77.11;96246.59;5187450;57;20129;-79
2021/08/19 20:51:32;;;;;;;1.48;1.38;;;;;;;19.93;76.90;96244.31;5188079;57;20679;-80
2021/08/19 20:56:34;;;;;;;2.05;1.85;;;;;;;19.91;76.27;96241.28;5187633;57;20594;-80
2021/08/19 21:01:37;;;;;;;1.48;1.38;;;;;;;19.87;75.72;96248.47;5188183;57;20137;-79
2021/08/19 21:06:40;;;;;;;1.67;1.58;;;;;;;19.98;76.19;96246.31;5187145;57;20703;-80
2021/08/19 21:11:42;;;;;;;4.53;1.67;;;;;;;20.01;77.50;96247.31;5187497;57;20137;-81
2021/08/19 21:16:44;;;;;;;1.58;1.48;;;;;;;19.90;79.03;96250.25;5186926;57;20137;-80
2021/08/19 21:21:47;;;;;;;1.92;1.60;;;;;;;19.95;77.21;96266.22;5189390;57;20208;-81
2021/08/19 21:26:50;;;;;;;2.65;1.70;;;;;;;19.92;73.87;96265.22;5187869;57;20115;-81
2021/08/19 21:31:52;;;;;;;1.58;1.48;;;;;;;19.94;73.66;96264.72;5188003;57;20821;-80
2021/08/19 21:36:55;;;;;;;1.80;1.70;;;;;;;19.89;75.11;96265.53;5188744;57;20225;-80
2021/08/19 21:41:58;;;;;;;1.75;1.65;;;;;;;19.83;74.92;96256.44;5187943;57;20119;-80
2021/08/19 21:47:00;;;;;;;1.98;1.80;;;;;;;19.83;75.27;96251.56;5187864;57;20683;-81
2021/08/19 21:52:04;;;;;;;1.48;1.38;;;;;;;19.80;77.94;96258.22;5188238;57;20132;-81
2021/08/19 21:57:06;;;;;;;1.60;1.50;;;;;;;19.81;77.69;96265.34;5188074;57;20107;-80
2021/08/19 22:02:09;;;;;;;2.67;1.52;;;;;;;19.70;78.67;96265.47;5187790;57;20142;-79
2021/08/19 22:07:12;;;;;;;1.65;1.55;;;;;;;19.68;78.38;96262.41;5186809;57;20120;-80
2021/08/19 22:12:14;;;;;;;1.52;1.42;;;;;;;19.67;78.86;96274.16;5187201;57;20137;-80
2021/08/19 22:17:17;;;;;;;1.70;1.42;;;;;;;19.58;79.38;96264.06;5187347;57;20129;-80
2021/08/19 22:22:21;;;;;;;1.55;1.45;;;;;;;19.74;79.64;96270.78;5200937;57;20195;-80
2021/08/19 22:27:23;;;;;;;1.33;1.23;;;;;;;19.80;79.01;96272.25;5189792;57;20128;-80
2021/08/19 22:32:25;;;;;;;1.60;1.50;;;;;;;19.64;80.14;96264.00;5179655;57;20142;-79
2021/08/19 22:37:28;;;;;;;1.15;1.15;;;;;;;19.65;78.51;96269.06;5180667;57;20275;-77
2021/08/19 22:42:31;;;;;;;2.85;1.60;;;;;;;19.69;77.69;96269.56;5175466;57;20129;-79
2021/08/19 22:47:33;;;;;;;2.33;1.60;;;;;;;19.55;78.73;96261.53;5162994;57;20116;-80
2021/08/19 22:52:36;;;;;;;1.70;1.60;;;;;;;19.57;78.68;96254.13;5164507;57;20719;-79
2021/08/19 22:57:39;;;;;;;2.00;1.70;;;;;;;19.53;76.63;96252.88;5165068;57;20112;-80
2021/08/19 23:02:41;;;;;;;2.42;1.90;;;;;;;19.35;75.50;96254.31;5164951;57;20137;-81
2021/08/19 23:07:44;;;;;;;3.65;2.10;;;;;;;19.25;75.17;96267.09;5164931;57;20213;-80
2021/08/19 23:12:47;;;;;;;2.83;1.55;;;;;;;19.44;75.84;96261.63;5166097;57;20169;-80
2021/08/19 23:17:50;;;;;;;1.67;1.58;;;;;;;19.53;75.68;96256.47;5169520;57;20116;-80
2021/08/19 23:22:52;;;;;;;1.45;1.35;;;;;;;19.49;78.64;96266.44;5165169;57;20645;-81
2021/08/19 23:27:56;;;;;;;4.15;1.55;;;;;;;19.35;80.45;96259.91;5163988;57;20120;-81
2021/08/19 23:32:58;;;;;;;1.77;1.67;;;;;;;19.52;80.30;96277.34;5165163;57;20180;-81
2021/08/19 23:38:01;;;;;;;1.90;1.33;;;;;;;19.47;80.84;96269.75;5166576;57;20116;-81
2021/08/19 23:43:03;;;;;;;4.25;1.55;;;;;;;19.56;80.44;96254.66;5166271;57;20606;-81
2021/08/19 23:48:06;;;;;;;1.67;1.58;;;;;;;19.53;80.39;96262.06;5166205;57;20134;-81